createdAt,value
2017-12-31T00:01:51.018Z,6.73
2017-12-31T00:04:18.883Z,4.70
2017-12-31T00:06:46.762Z,3.30
2017-12-31T00:09:14.612Z,6.33
2017-12-31T00:11:42.466Z,4.50
2017-12-31T00:14:12.466Z,7.63
2017-12-31T00:16:40.345Z,6.10
2017-12-31T00:19:08.204Z,7.53
2017-12-31T00:21:36.089Z,4.77
2017-12-31T00:24:03.941Z,7.27
2017-12-31T00:26:32.111Z,6.30
2017-12-31T00:29:00.194Z,3.50
2017-12-31T00:31:28.264Z,4.47
2017-12-31T00:33:56.158Z,3.77
2017-12-31T00:36:24.045Z,4.33
2017-12-31T00:38:51.872Z,5.03
2017-12-31T00:41:19.720Z,4.83
2017-12-31T00:43:48.301Z,3.33
2017-12-31T00:46:16.341Z,2.53
2017-12-31T00:48:44.501Z,2.97
2017-12-31T00:51:12.416Z,2.80
2017-12-31T00:53:40.314Z,3.40
2017-12-31T00:56:08.180Z,3.00
2017-12-31T00:58:36.108Z,3.10
2017-12-31T01:01:03.963Z,3.30
2017-12-31T01:03:31.832Z,3.20
2017-12-31T01:05:59.704Z,3.10
2017-12-31T01:08:27.584Z,2.97
2017-12-31T01:10:55.444Z,3.67
2017-12-31T01:13:23.338Z,3.00
2017-12-31T01:15:51.188Z,3.50
2017-12-31T01:18:19.028Z,4.03
2017-12-31T01:20:47.036Z,2.83
2017-12-31T01:23:14.907Z,4.30
2017-12-31T01:25:42.755Z,5.50
2017-12-31T01:28:10.638Z,5.80
2017-12-31T01:30:38.512Z,4.97
2017-12-31T01:33:06.394Z,5.83
2017-12-31T01:35:34.389Z,3.77
2017-12-31T01:38:02.261Z,3.20
2017-12-31T01:40:30.194Z,3.53
2017-12-31T01:42:58.081Z,4.17
2017-12-31T01:45:25.931Z,4.87
2017-12-31T01:47:53.808Z,4.23
2017-12-31T01:50:21.675Z,2.70
2017-12-31T01:52:49.560Z,5.03
2017-12-31T01:55:17.423Z,3.47
2017-12-31T01:57:45.317Z,3.70
2017-12-31T02:00:13.303Z,3.73
2017-12-31T02:02:41.147Z,3.20
2017-12-31T02:05:09.044Z,4.30
2017-12-31T02:07:36.928Z,3.97
2017-12-31T02:10:04.763Z,5.10
2017-12-31T02:12:32.652Z,6.20
2017-12-31T02:15:00.519Z,5.83
2017-12-31T02:17:28.379Z,6.57
2017-12-31T02:19:56.312Z,5.93
2017-12-31T02:22:24.160Z,8.70
2017-12-31T02:24:52.012Z,6.40
2017-12-31T02:27:19.893Z,4.60
2017-12-31T02:29:47.734Z,5.80
2017-12-31T02:32:15.607Z,4.97
2017-12-31T02:34:43.526Z,4.00
2017-12-31T02:37:11.386Z,4.97
2017-12-31T02:39:39.256Z,4.70
2017-12-31T02:42:07.144Z,3.77
2017-12-31T02:44:35.021Z,4.07
2017-12-31T02:47:02.914Z,4.93
2017-12-31T02:49:30.773Z,5.40
2017-12-31T02:51:58.680Z,4.63
2017-12-31T02:54:26.517Z,4.33
2017-12-31T02:56:54.387Z,8.87
2017-12-31T02:59:22.257Z,7.37
2017-12-31T03:01:50.099Z,4.83
2017-12-31T03:04:17.989Z,7.47
2017-12-31T03:06:45.888Z,6.70
2017-12-31T03:09:13.714Z,5.60
2017-12-31T03:11:41.608Z,8.50
2017-12-31T03:14:09.434Z,6.67
2017-12-31T03:16:37.266Z,5.87
2017-12-31T03:19:05.137Z,7.63
2017-12-31T03:21:32.980Z,5.20
2017-12-31T03:24:00.824Z,5.10
2017-12-31T03:26:28.696Z,6.90
2017-12-31T03:28:56.564Z,5.17
2017-12-31T03:31:24.429Z,4.97
2017-12-31T03:33:52.328Z,4.60
2017-12-31T03:36:20.192Z,5.07
2017-12-31T03:38:48.061Z,4.20
2017-12-31T03:41:15.966Z,5.33
2017-12-31T03:43:43.802Z,5.43
2017-12-31T03:46:11.640Z,5.10
2017-12-31T03:48:39.513Z,5.83
2017-12-31T03:51:07.353Z,4.93
2017-12-31T03:53:35.232Z,4.63
2017-12-31T03:56:03.086Z,4.13
2017-12-31T03:58:30.959Z,4.57
2017-12-31T04:00:58.799Z,4.93
2017-12-31T04:03:26.995Z,4.17
2017-12-31T04:05:54.859Z,3.83
2017-12-31T04:08:22.694Z,3.87
2017-12-31T04:10:50.600Z,4.37
2017-12-31T04:13:18.444Z,3.33
2017-12-31T04:15:46.324Z,4.00
2017-12-31T04:18:14.212Z,4.00
2017-12-31T04:20:42.085Z,3.40
2017-12-31T04:23:09.925Z,4.10
2017-12-31T04:25:37.793Z,3.70
2017-12-31T04:28:05.651Z,2.90
2017-12-31T04:30:33.515Z,3.80
2017-12-31T04:33:01.391Z,3.90
2017-12-31T04:35:29.246Z,4.17
2017-12-31T04:37:57.124Z,3.10
2017-12-31T04:40:25.010Z,4.10
2017-12-31T04:42:52.876Z,3.00
2017-12-31T04:45:20.735Z,4.23
2017-12-31T04:47:48.607Z,3.30
2017-12-31T04:50:16.508Z,4.03
2017-12-31T04:52:44.357Z,3.93
2017-12-31T04:55:12.258Z,4.20
2017-12-31T04:57:40.101Z,3.60
2017-12-31T05:00:07.959Z,3.27
2017-12-31T05:02:35.837Z,4.03
2017-12-31T05:05:03.735Z,3.70
2017-12-31T05:07:31.595Z,4.13
2017-12-31T05:09:59.457Z,3.97
2017-12-31T05:12:27.314Z,3.97
2017-12-31T05:14:55.159Z,3.30
2017-12-31T05:17:23.024Z,3.33
2017-12-31T05:19:50.948Z,3.60
2017-12-31T05:22:18.845Z,4.03
2017-12-31T05:24:46.780Z,3.70
2017-12-31T05:27:14.631Z,3.73
2017-12-31T05:29:42.482Z,4.97
2017-12-31T05:32:10.378Z,4.67
2017-12-31T05:34:38.305Z,4.20
2017-12-31T05:37:06.156Z,3.73
2017-12-31T05:39:34.056Z,3.43
2017-12-31T05:42:01.941Z,3.97
2017-12-31T05:44:29.847Z,3.80
2017-12-31T05:46:57.827Z,4.30
2017-12-31T05:49:25.674Z,4.40
2017-12-31T05:51:54.195Z,3.40
2017-12-31T05:54:22.121Z,3.40
2017-12-31T05:56:50.008Z,3.80
2017-12-31T05:59:17.968Z,3.80
2017-12-31T06:01:45.935Z,4.33
2017-12-31T06:04:13.808Z,4.50
2017-12-31T06:06:41.780Z,4.40
2017-12-31T06:09:10.056Z,3.83
2017-12-31T06:11:37.956Z,4.20
2017-12-31T06:14:05.934Z,3.80
2017-12-31T06:16:34.638Z,4.43
2017-12-31T06:19:02.521Z,3.43
2017-12-31T06:21:30.375Z,3.50
2017-12-31T06:23:58.272Z,3.60
2017-12-31T06:26:26.155Z,4.67
2017-12-31T06:28:53.991Z,3.97
2017-12-31T06:31:21.951Z,3.50
2017-12-31T06:33:49.800Z,3.70
2017-12-31T06:36:17.657Z,3.57
2017-12-31T06:38:45.537Z,3.93
2017-12-31T06:41:13.406Z,4.37
2017-12-31T06:43:41.248Z,4.40
2017-12-31T06:46:09.126Z,4.00
2017-12-31T06:48:37.029Z,4.20
2017-12-31T06:51:04.901Z,4.57
2017-12-31T06:53:32.764Z,4.87
2017-12-31T06:56:00.628Z,4.87
2017-12-31T06:58:28.474Z,4.67
2017-12-31T07:00:56.373Z,4.93
2017-12-31T07:03:24.233Z,5.47
2017-12-31T07:05:52.080Z,4.03
2017-12-31T07:08:19.952Z,4.53
2017-12-31T07:10:47.825Z,5.27
2017-12-31T07:13:15.685Z,4.63
2017-12-31T07:15:43.575Z,4.10
2017-12-31T07:18:11.416Z,4.87
2017-12-31T07:20:39.252Z,5.17
2017-12-31T07:23:07.129Z,4.50
2017-12-31T07:25:35.257Z,4.53
2017-12-31T07:28:03.173Z,3.87
2017-12-31T07:30:31.616Z,4.10
2017-12-31T07:32:59.510Z,5.00
2017-12-31T07:35:27.356Z,4.30
2017-12-31T07:37:55.335Z,4.80
2017-12-31T07:40:23.213Z,4.77
2017-12-31T07:42:51.169Z,4.90
2017-12-31T07:45:19.806Z,5.00
2017-12-31T07:47:47.680Z,4.80
2017-12-31T07:50:15.583Z,4.30
2017-12-31T07:52:43.515Z,5.17
2017-12-31T07:55:11.368Z,4.37
2017-12-31T07:57:39.995Z,5.30
2017-12-31T08:00:07.916Z,4.30
2017-12-31T08:02:35.774Z,4.57
2017-12-31T08:05:03.674Z,5.43
2017-12-31T08:07:31.581Z,5.20
2017-12-31T08:09:59.445Z,5.17
2017-12-31T08:12:27.294Z,5.20
2017-12-31T08:14:55.165Z,4.33
2017-12-31T08:17:23.044Z,4.73
2017-12-31T08:19:50.901Z,5.30
2017-12-31T08:22:18.891Z,5.23
2017-12-31T08:24:46.743Z,4.40
2017-12-31T08:27:34.223Z,5.13
2017-12-31T08:30:16.562Z,4.40
2017-12-31T08:32:54.243Z,4.20
2017-12-31T08:35:22.793Z,4.20
2017-12-31T08:37:53.532Z,4.20
2017-12-31T08:40:36.175Z,5.43
2017-12-31T08:43:16.136Z,5.70
2017-12-31T08:45:56.518Z,4.57
2017-12-31T08:48:25.579Z,5.13
2017-12-31T08:50:55.605Z,5.03
2017-12-31T08:56:18.675Z,5.07
2017-12-31T08:58:55.441Z,4.50
2017-12-31T09:01:46.773Z,5.07
2017-12-31T09:04:28.465Z,4.40
2017-12-31T09:07:02.953Z,5.00
2017-12-31T09:09:33.891Z,4.50
2017-12-31T09:12:04.559Z,5.43
2017-12-31T09:14:41.348Z,5.30
2017-12-31T09:17:09.244Z,5.43
2017-12-31T09:19:37.113Z,5.13
2017-12-31T09:22:05.025Z,6.10
2017-12-31T09:24:32.916Z,5.70
2017-12-31T09:27:02.667Z,5.43
2017-12-31T09:29:30.695Z,6.87
2017-12-31T09:31:58.603Z,6.53
2017-12-31T09:34:26.539Z,6.60
2017-12-31T09:36:54.431Z,6.50
2017-12-31T09:39:22.292Z,7.03
2017-12-31T09:41:50.411Z,6.80
2017-12-31T09:44:18.320Z,7.70
2017-12-31T09:46:46.276Z,7.90
2017-12-31T09:49:14.145Z,9.00
2017-12-31T09:51:41.999Z,9.77
2017-12-31T09:54:09.868Z,9.10
2017-12-31T09:56:37.724Z,8.40
2017-12-31T09:59:05.600Z,9.93
2017-12-31T10:01:33.446Z,10.60
2017-12-31T10:04:01.505Z,9.60
2017-12-31T10:06:30.476Z,10.00
2017-12-31T10:08:58.392Z,10.13
2017-12-31T10:11:29.987Z,10.80
2017-12-31T10:16:39.844Z,9.67
2017-12-31T10:19:07.740Z,9.80
2017-12-31T10:21:35.712Z,10.63
2017-12-31T10:24:03.588Z,9.83
2017-12-31T10:26:31.474Z,10.30
2017-12-31T10:28:59.317Z,10.30
2017-12-31T10:31:27.149Z,9.00
2017-12-31T10:33:56.254Z,10.13
2017-12-31T10:36:24.116Z,10.70
2017-12-31T10:38:51.955Z,10.00
2017-12-31T10:41:19.860Z,11.17
2017-12-31T10:43:47.724Z,9.37
2017-12-31T10:46:15.730Z,9.77
2017-12-31T10:48:43.630Z,9.10
2017-12-31T10:51:11.520Z,9.37
2017-12-31T10:53:39.388Z,10.80
2017-12-31T10:56:07.282Z,9.47
2017-12-31T10:58:35.539Z,11.03
2017-12-31T11:01:03.646Z,10.40
2017-12-31T11:03:32.213Z,9.47
2017-12-31T11:06:00.092Z,9.40
2017-12-31T11:08:27.942Z,10.07
2017-12-31T11:10:55.816Z,10.63
2017-12-31T11:13:23.669Z,11.33
2017-12-31T11:15:51.522Z,11.40
2017-12-31T11:18:19.409Z,11.10
2017-12-31T11:20:47.306Z,12.20
2017-12-31T11:23:15.173Z,12.00
2017-12-31T11:25:43.063Z,11.97
2017-12-31T11:28:10.906Z,11.13
2017-12-31T11:30:38.773Z,12.23
2017-12-31T11:33:06.692Z,10.63
2017-12-31T11:35:34.680Z,11.30
2017-12-31T11:38:02.552Z,10.53
2017-12-31T11:40:30.445Z,8.07
2017-12-31T11:42:58.312Z,10.30
2017-12-31T11:45:26.174Z,10.77
2017-12-31T11:47:54.100Z,10.50
2017-12-31T11:50:22.042Z,11.23
2017-12-31T11:52:49.964Z,9.67
2017-12-31T11:55:17.919Z,11.10
2017-12-31T11:57:45.874Z,11.00
2017-12-31T12:00:13.760Z,12.27
2017-12-31T12:02:41.669Z,11.37
2017-12-31T12:05:10.608Z,11.93
2017-12-31T12:07:38.678Z,11.13
2017-12-31T12:10:06.616Z,10.60
2017-12-31T12:12:34.823Z,9.57
2017-12-31T12:15:02.748Z,10.70
2017-12-31T12:17:30.892Z,12.20
2017-12-31T12:19:58.877Z,11.23
2017-12-31T12:22:26.846Z,11.13
2017-12-31T12:24:54.808Z,9.87
2017-12-31T12:27:28.716Z,9.83
2017-12-31T12:30:02.309Z,8.50
2017-12-31T12:38:09.860Z,7.13
2017-12-31T12:40:37.827Z,9.27
2017-12-31T12:43:05.952Z,9.03
2017-12-31T12:45:34.031Z,7.97
2017-12-31T12:48:01.980Z,6.27
2017-12-31T12:50:29.851Z,6.20
2017-12-31T12:52:57.715Z,5.80
2017-12-31T12:55:26.106Z,5.57
2017-12-31T12:57:53.980Z,6.30
2017-12-31T13:00:21.884Z,5.63
2017-12-31T13:02:49.768Z,6.07
2017-12-31T13:05:17.878Z,5.83
2017-12-31T13:07:45.753Z,6.47
2017-12-31T13:10:13.643Z,6.00
2017-12-31T13:12:41.524Z,5.50
2017-12-31T13:15:09.417Z,6.00
2017-12-31T13:17:37.322Z,5.40
2017-12-31T13:20:05.192Z,5.10
2017-12-31T13:22:33.092Z,5.43
2017-12-31T13:25:00.984Z,4.63
2017-12-31T13:27:28.856Z,4.50
2017-12-31T13:29:56.752Z,4.70
2017-12-31T13:32:24.645Z,4.07
2017-12-31T13:34:52.559Z,4.77
2017-12-31T13:37:20.423Z,4.20
2017-12-31T13:39:48.326Z,4.93
2017-12-31T13:42:16.189Z,5.53
2017-12-31T13:44:44.036Z,9.50
2017-12-31T13:47:11.985Z,5.30
2017-12-31T13:49:39.977Z,6.67
2017-12-31T13:52:07.858Z,7.33
2017-12-31T13:54:35.771Z,6.63
2017-12-31T13:57:03.763Z,6.47
2017-12-31T13:59:31.671Z,5.20
2017-12-31T14:01:59.575Z,14.00
2017-12-31T14:04:27.669Z,5.60
2017-12-31T14:06:55.573Z,4.57
2017-12-31T14:09:23.443Z,11.00
2017-12-31T14:11:51.286Z,13.87
2017-12-31T14:14:19.145Z,7.03
2017-12-31T14:16:47.047Z,5.67
2017-12-31T14:19:14.916Z,6.30
2017-12-31T14:21:42.840Z,4.37
2017-12-31T14:24:10.874Z,5.53
2017-12-31T14:26:38.819Z,4.70
2017-12-31T14:29:06.753Z,4.73
2017-12-31T14:31:34.663Z,8.10
2017-12-31T14:34:02.803Z,5.23
2017-12-31T14:36:30.672Z,4.30
2017-12-31T14:38:58.570Z,3.90
2017-12-31T14:41:26.476Z,6.70
2017-12-31T14:43:54.349Z,6.93
2017-12-31T14:46:22.592Z,4.13
2017-12-31T14:48:50.467Z,4.53
2017-12-31T14:51:18.350Z,7.37
2017-12-31T14:53:46.245Z,6.00
2017-12-31T14:56:14.156Z,8.40
2017-12-31T14:58:42.045Z,10.43
2017-12-31T15:01:10.008Z,5.23
2017-12-31T15:03:37.896Z,5.40
2017-12-31T15:06:05.786Z,3.97
2017-12-31T15:08:33.706Z,6.00
2017-12-31T15:11:01.567Z,6.43
2017-12-31T15:13:29.443Z,4.23
2017-12-31T15:15:57.363Z,5.30
2017-12-31T15:18:25.253Z,8.17
2017-12-31T15:20:53.108Z,4.90
2017-12-31T15:23:21.875Z,5.50
2017-12-31T15:25:49.739Z,5.33
2017-12-31T15:28:17.695Z,4.37
2017-12-31T15:30:45.600Z,5.20
2017-12-31T15:33:13.458Z,5.90
2017-12-31T15:35:41.322Z,6.10
2017-12-31T15:38:09.220Z,5.30
2017-12-31T15:40:37.157Z,5.83
2017-12-31T15:43:05.062Z,5.57
2017-12-31T15:45:33.319Z,5.87
2017-12-31T15:48:01.273Z,3.57
2017-12-31T15:50:29.133Z,4.43
2017-12-31T15:52:57.122Z,5.20
2017-12-31T15:55:25.035Z,3.37
2017-12-31T15:57:52.927Z,4.40
2017-12-31T16:00:20.845Z,4.30
2017-12-31T16:02:48.700Z,4.93
2017-12-31T16:05:16.591Z,10.10
2017-12-31T16:07:44.550Z,6.00
2017-12-31T16:10:12.458Z,4.50
2017-12-31T16:12:40.352Z,5.63
2017-12-31T16:15:08.306Z,6.20
2017-12-31T16:17:36.258Z,8.57
2017-12-31T16:20:04.308Z,7.90
2017-12-31T16:22:32.216Z,7.07
2017-12-31T16:25:00.206Z,8.17
2017-12-31T16:27:28.275Z,7.50
2017-12-31T16:29:56.617Z,9.00
2017-12-31T16:32:24.478Z,7.30
2017-12-31T16:34:52.449Z,10.13
2017-12-31T16:37:22.816Z,7.90
2017-12-31T16:39:50.676Z,8.23
2017-12-31T16:42:18.678Z,8.37
2017-12-31T16:44:46.685Z,8.07
2017-12-31T16:47:14.577Z,9.07
2017-12-31T16:49:42.449Z,6.47
2017-12-31T16:52:10.383Z,7.80
2017-12-31T16:54:38.319Z,7.23
2017-12-31T16:57:06.233Z,7.83
2017-12-31T16:59:34.367Z,12.50
2017-12-31T17:02:02.228Z,7.03
2017-12-31T17:04:30.099Z,18.23
2017-12-31T17:06:58.877Z,47.57
2017-12-31T17:09:26.748Z,8.83
2017-12-31T17:11:54.613Z,12.00
2017-12-31T17:14:22.520Z,9.60
2017-12-31T17:16:50.632Z,13.57
2017-12-31T17:19:18.563Z,10.13
2017-12-31T17:21:46.754Z,11.70
2017-12-31T17:24:14.669Z,10.07
2017-12-31T17:26:42.514Z,8.20
2017-12-31T17:29:10.395Z,16.30
2017-12-31T17:31:38.239Z,15.20
2017-12-31T17:34:06.298Z,27.80
2017-12-31T17:36:34.354Z,16.60
2017-12-31T17:39:02.370Z,14.10
2017-12-31T17:41:30.428Z,12.43
2017-12-31T17:43:58.279Z,13.90
2017-12-31T17:46:26.170Z,12.77
2017-12-31T17:48:54.113Z,14.50
2017-12-31T17:51:22.012Z,13.40
2017-12-31T17:53:49.929Z,10.47
2017-12-31T17:56:17.785Z,9.60
2017-12-31T17:58:45.804Z,15.80
2017-12-31T18:01:13.725Z,12.77
2017-12-31T18:03:41.581Z,14.00
2017-12-31T18:06:09.594Z,13.73
2017-12-31T18:08:37.548Z,14.13
2017-12-31T18:11:06.551Z,13.60
2017-12-31T18:13:34.866Z,16.00
2017-12-31T18:16:03.063Z,11.67
2017-12-31T18:18:30.974Z,11.20
2017-12-31T18:20:58.819Z,12.37
2017-12-31T18:23:26.692Z,10.80
2017-12-31T18:25:54.657Z,14.30
2017-12-31T18:28:22.592Z,9.47
2017-12-31T18:30:51.263Z,8.67
2017-12-31T18:33:19.518Z,11.27
2017-12-31T18:35:47.471Z,17.17
2017-12-31T18:38:15.383Z,20.73
2017-12-31T18:40:43.279Z,13.80
2017-12-31T18:43:11.184Z,15.60
2017-12-31T18:45:39.100Z,17.90
2017-12-31T18:48:06.998Z,17.33
2017-12-31T18:50:34.894Z,12.10
2017-12-31T18:53:03.057Z,12.67
2017-12-31T18:55:30.988Z,11.20
2017-12-31T18:57:58.850Z,14.17
2017-12-31T19:00:26.768Z,14.20
2017-12-31T19:02:54.674Z,13.80
2017-12-31T19:05:22.579Z,9.63
2017-12-31T19:07:50.516Z,10.83
2017-12-31T19:10:18.389Z,14.13
2017-12-31T19:12:46.259Z,12.70
2017-12-31T19:15:14.156Z,16.23
2017-12-31T19:17:42.067Z,17.10
2017-12-31T19:20:09.963Z,17.30
2017-12-31T19:22:37.920Z,18.50
2017-12-31T19:25:05.820Z,16.63
2017-12-31T19:27:33.818Z,12.53
2017-12-31T19:30:01.732Z,19.13
2017-12-31T19:32:29.644Z,14.57
2017-12-31T19:34:57.593Z,19.60
2017-12-31T19:37:25.495Z,19.87
2017-12-31T19:39:53.348Z,22.13
2017-12-31T19:42:21.260Z,20.83
2017-12-31T19:44:49.176Z,17.90
2017-12-31T19:47:17.116Z,20.30
2017-12-31T19:49:45.005Z,20.80
2017-12-31T19:52:13.881Z,15.97
2017-12-31T19:54:41.916Z,15.17
2017-12-31T19:57:09.880Z,13.83
2017-12-31T19:59:37.798Z,16.80
2017-12-31T20:02:06.552Z,15.50
2017-12-31T20:04:34.469Z,15.50
2017-12-31T20:07:02.886Z,12.30
2017-12-31T20:09:30.748Z,16.50
2017-12-31T20:11:58.631Z,16.30
2017-12-31T20:14:26.514Z,13.20
2017-12-31T20:16:54.472Z,13.60
2017-12-31T20:19:22.440Z,16.27
2017-12-31T20:21:50.358Z,15.67
2017-12-31T20:24:18.279Z,13.47
2017-12-31T20:26:46.314Z,15.60
2017-12-31T20:29:14.239Z,11.97
2017-12-31T20:31:42.117Z,14.27
2017-12-31T20:34:10.166Z,9.90
2017-12-31T20:36:38.031Z,11.80
2017-12-31T20:39:06.243Z,11.13
2017-12-31T20:41:34.138Z,11.20
2017-12-31T20:44:02.016Z,13.30
2017-12-31T20:46:29.875Z,13.57
2017-12-31T20:48:57.753Z,13.20
2017-12-31T20:51:25.660Z,15.27
2017-12-31T20:53:53.564Z,11.10
2017-12-31T20:56:21.479Z,33.03
2017-12-31T20:58:49.376Z,17.87
2017-12-31T21:01:17.233Z,15.00
2017-12-31T21:03:45.140Z,13.00
2017-12-31T21:06:13.064Z,15.60
2017-12-31T21:08:40.956Z,16.00
2017-12-31T21:11:08.807Z,22.00
2017-12-31T21:13:36.766Z,16.00
2017-12-31T21:16:04.639Z,16.60
2017-12-31T21:18:32.501Z,14.60
2017-12-31T21:21:00.396Z,13.37
2017-12-31T21:23:28.329Z,14.40
2017-12-31T21:25:56.196Z,12.90
2017-12-31T21:28:24.085Z,16.23
2017-12-31T21:30:51.954Z,16.07
2017-12-31T21:33:19.854Z,19.57
2017-12-31T21:35:47.755Z,16.40
2017-12-31T21:38:15.627Z,17.70
2017-12-31T21:40:43.512Z,14.90
2017-12-31T21:43:11.423Z,13.30
2017-12-31T21:45:40.408Z,17.00
2017-12-31T21:48:08.307Z,14.57
2017-12-31T21:50:36.210Z,13.13
2017-12-31T21:53:04.089Z,44.00
2017-12-31T21:55:31.916Z,14.60
2017-12-31T21:57:59.828Z,17.53
2017-12-31T22:00:27.813Z,16.60
2017-12-31T22:02:55.652Z,13.30
2017-12-31T22:05:23.624Z,19.17
2017-12-31T22:07:51.477Z,18.87
2017-12-31T22:10:21.488Z,16.77
2017-12-31T22:12:49.376Z,15.17
2017-12-31T22:15:17.383Z,20.77
2017-12-31T22:17:45.278Z,19.70
2017-12-31T22:20:13.283Z,14.30
2017-12-31T22:22:41.138Z,12.10
2017-12-31T22:25:09.009Z,11.77
2017-12-31T22:27:36.913Z,14.40
2017-12-31T22:30:04.819Z,11.47
2017-12-31T22:32:32.753Z,17.80
2017-12-31T22:35:00.728Z,17.47
2017-12-31T22:37:28.831Z,14.40
2017-12-31T22:39:56.728Z,17.37
2017-12-31T22:42:24.615Z,13.07
2017-12-31T22:44:52.585Z,11.67
2017-12-31T22:47:20.699Z,16.63
2017-12-31T22:49:48.595Z,30.10
2017-12-31T22:52:16.645Z,19.90
2017-12-31T22:54:44.563Z,15.47
2017-12-31T23:02:57.128Z,65.80
2017-12-31T23:05:25.133Z,114.50
2017-12-31T23:07:53.119Z,160.10
2017-12-31T23:10:21.080Z,156.33
2017-12-31T23:12:48.987Z,157.73
2017-12-31T23:15:17.053Z,140.80
2017-12-31T23:17:44.964Z,136.87
2017-12-31T23:20:12.924Z,136.93
2017-12-31T23:22:40.773Z,127.27
2017-12-31T23:25:08.659Z,134.37
2017-12-31T23:27:36.771Z,109.00
2017-12-31T23:30:04.681Z,123.00
2017-12-31T23:32:32.689Z,122.47
2017-12-31T23:35:00.601Z,111.47
2017-12-31T23:37:28.498Z,178.63
2017-12-31T23:39:56.496Z,102.27
2017-12-31T23:42:24.385Z,92.57
2017-12-31T23:44:52.271Z,82.87
2017-12-31T23:47:20.222Z,72.50
2017-12-31T23:49:48.077Z,74.60
2017-12-31T23:52:16.054Z,73.50
2017-12-31T23:54:43.952Z,78.73
2017-12-31T23:57:11.880Z,62.53
2017-12-31T23:59:39.752Z,77.13
